sensor_id;sensor_type;location;lat;lon;timestamp;temperature;humidity
19152;DHT22;9708;53.114;9.388;2023-05-28T00:00:04;10.90;99.90
19152;DHT22;9708;53.114;9.388;2023-05-28T00:02:32;10.90;99.90
19152;DHT22;9708;53.114;9.388;2023-05-28T00:04:58;10.90;99.90
19152;DHT22;9708;53.114;9.388;2023-05-28T00:07:25;10.90;99.90
19152;DHT22;9708;53.114;9.388;2023-05-28T00:09:53;10.90;99.90
19152;DHT22;9708;53.114;9.388;2023-05-28T00:12:22;10.90;99.90
19152;DHT22;9708;53.114;9.388;2023-05-28T00:14:49;10.90;99.90
19152;DHT22;9708;53.114;9.388;2023-05-28T00:17:16;10.90;99.90
19152;DHT22;9708;53.114;9.388;2023-05-28T00:19:43;10.90;99.90
19152;DHT22;9708;53.114;9.388;2023-05-28T00:22:11;10.90;99.90
19152;DHT22;9708;53.114;9.388;2023-05-28T00:24:38;10.90;99.90
19152;DHT22;9708;53.114;9.388;2023-05-28T00:27:05;10.80;99.90
19152;DHT22;9708;53.114;9.388;2023-05-28T00:29:34;10.80;99.90
19152;DHT22;9708;53.114;9.388;2023-05-28T00:32:01;10.70;99.90
19152;DHT22;9708;53.114;9.388;2023-05-28T00:34:27;10.60;99.90
19152;DHT22;9708;53.114;9.388;2023-05-28T00:36:54;10.50;99.90
19152;DHT22;9708;53.114;9.388;2023-05-28T00:39:21;10.50;99.90
19152;DHT22;9708;53.114;9.388;2023-05-28T00:41:48;10.50;99.90
19152;DHT22;9708;53.114;9.388;2023-05-28T00:44:25;10.50;99.90
19152;DHT22;9708;53.114;9.388;2023-05-28T00:46:54;10.40;99.90
19152;DHT22;9708;53.114;9.388;2023-05-28T00:49:22;10.50;99.90
19152;DHT22;9708;53.114;9.388;2023-05-28T00:51:49;10.50;99.90
19152;DHT22;9708;53.114;9.388;2023-05-28T00:54:17;10.50;99.90
19152;DHT22;9708;53.114;9.388;2023-05-28T00:56:44;10.50;99.90
19152;DHT22;9708;53.114;9.388;2023-05-28T00:59:11;10.50;99.90
19152;DHT22;9708;53.114;9.388;2023-05-28T01:01:39;10.50;99.90
19152;DHT22;9708;53.114;9.388;2023-05-28T01:04:08;10.40;99.90
19152;DHT22;9708;53.114;9.388;2023-05-28T01:06:35;10.40;99.90
19152;DHT22;9708;53.114;9.388;2023-05-28T01:09:03;10.40;99.90
19152;DHT22;9708;53.114;9.388;2023-05-28T01:11:31;10.40;99.90
19152;DHT22;9708;53.114;9.388;2023-05-28T01:13:59;10.30;99.90
19152;DHT22;9708;53.114;9.388;2023-05-28T01:16:26;10.30;99.90
19152;DHT22;9708;53.114;9.388;2023-05-28T01:18:54;10.30;99.90
19152;DHT22;9708;53.114;9.388;2023-05-28T01:21:23;10.30;99.90
19152;DHT22;9708;53.114;9.388;2023-05-28T01:23:52;10.20;99.90
19152;DHT22;9708;53.114;9.388;2023-05-28T01:26:19;10.20;99.90
19152;DHT22;9708;53.114;9.388;2023-05-28T01:28:47;10.20;99.90
19152;DHT22;9708;53.114;9.388;2023-05-28T01:31:15;10.10;99.90
19152;DHT22;9708;53.114;9.388;2023-05-28T01:33:43;10.10;99.90
19152;DHT22;9708;53.114;9.388;2023-05-28T01:36:14;10.10;99.90
19152;DHT22;9708;53.114;9.388;2023-05-28T01:38:42;9.90;99.90
19152;DHT22;9708;53.114;9.388;2023-05-28T01:41:11;9.90;99.90
19152;DHT22;9708;53.114;9.388;2023-05-28T01:43:39;9.90;99.90
19152;DHT22;9708;53.114;9.388;2023-05-28T01:46:07;9.90;99.90
19152;DHT22;9708;53.114;9.388;2023-05-28T01:48:35;9.90;99.90
19152;DHT22;9708;53.114;9.388;2023-05-28T01:51:03;9.90;99.90
19152;DHT22;9708;53.114;9.388;2023-05-28T01:53:30;9.80;99.90
19152;DHT22;9708;53.114;9.388;2023-05-28T01:55:57;9.90;99.90
19152;DHT22;9708;53.114;9.388;2023-05-28T01:58:25;9.90;99.90
19152;DHT22;9708;53.114;9.388;2023-05-28T02:01:00;9.90;99.90
19152;DHT22;9708;53.114;9.388;2023-05-28T02:03:30;9.80;99.90
19152;DHT22;9708;53.114;9.388;2023-05-28T02:05:57;9.80;99.90
19152;DHT22;9708;53.114;9.388;2023-05-28T02:08:24;9.80;99.90
19152;DHT22;9708;53.114;9.388;2023-05-28T02:10:51;9.70;99.90
19152;DHT22;9708;53.114;9.388;2023-05-28T02:13:18;9.70;99.90
19152;DHT22;9708;53.114;9.388;2023-05-28T02:15:46;9.70;99.90
19152;DHT22;9708;53.114;9.388;2023-05-28T02:18:13;9.70;99.90
19152;DHT22;9708;53.114;9.388;2023-05-28T02:20:41;9.70;99.90
19152;DHT22;9708;53.114;9.388;2023-05-28T02:23:08;9.60;99.90
19152;DHT22;9708;53.114;9.388;2023-05-28T02:25:35;9.50;99.90
19152;DHT22;9708;53.114;9.388;2023-05-28T02:28:03;9.50;99.90
19152;DHT22;9708;53.114;9.388;2023-05-28T02:30:29;9.50;99.90
19152;DHT22;9708;53.114;9.388;2023-05-28T02:32:57;9.50;99.90
19152;DHT22;9708;53.114;9.388;2023-05-28T02:35:24;9.40;99.90
19152;DHT22;9708;53.114;9.388;2023-05-28T02:37:51;9.40;99.90
19152;DHT22;9708;53.114;9.388;2023-05-28T02:40:18;9.40;99.90
19152;DHT22;9708;53.114;9.388;2023-05-28T02:42:44;9.30;99.90
19152;DHT22;9708;53.114;9.388;2023-05-28T02:45:11;9.30;99.90
19152;DHT22;9708;53.114;9.388;2023-05-28T02:47:38;9.40;99.90
19152;DHT22;9708;53.114;9.388;2023-05-28T02:50:07;9.30;99.90
19152;DHT22;9708;53.114;9.388;2023-05-28T02:52:34;9.40;99.90
19152;DHT22;9708;53.114;9.388;2023-05-28T02:55:01;9.30;99.90
19152;DHT22;9708;53.114;9.388;2023-05-28T02:57:27;9.30;99.90
19152;DHT22;9708;53.114;9.388;2023-05-28T02:59:54;9.30;99.90
19152;DHT22;9708;53.114;9.388;2023-05-28T03:02:21;9.30;99.90
19152;DHT22;9708;53.114;9.388;2023-05-28T03:04:48;9.30;99.90
19152;DHT22;9708;53.114;9.388;2023-05-28T03:07:16;9.30;99.90
19152;DHT22;9708;53.114;9.388;2023-05-28T03:09:43;9.20;99.90
19152;DHT22;9708;53.114;9.388;2023-05-28T03:12:10;9.30;99.90
19152;DHT22;9708;53.114;9.388;2023-05-28T03:14:36;9.30;99.90
19152;DHT22;9708;53.114;9.388;2023-05-28T03:17:03;9.30;99.90
19152;DHT22;9708;53.114;9.388;2023-05-28T03:19:30;9.30;99.90
19152;DHT22;9708;53.114;9.388;2023-05-28T03:21:57;9.30;99.90
19152;DHT22;9708;53.114;9.388;2023-05-28T03:24:25;9.30;99.90
19152;DHT22;9708;53.114;9.388;2023-05-28T03:26:52;9.30;99.90
19152;DHT22;9708;53.114;9.388;2023-05-28T03:29:19;9.30;99.90
19152;DHT22;9708;53.114;9.388;2023-05-28T03:31:46;9.30;99.90
19152;DHT22;9708;53.114;9.388;2023-05-28T03:34:13;9.40;99.90
19152;DHT22;9708;53.114;9.388;2023-05-28T03:36:40;9.40;99.90
19152;DHT22;9708;53.114;9.388;2023-05-28T03:39:07;9.30;99.90
19152;DHT22;9708;53.114;9.388;2023-05-28T03:41:36;9.30;99.90
19152;DHT22;9708;53.114;9.388;2023-05-28T03:44:04;9.30;99.90
19152;DHT22;9708;53.114;9.388;2023-05-28T03:46:31;9.30;99.90
19152;DHT22;9708;53.114;9.388;2023-05-28T03:48:58;9.30;99.90
19152;DHT22;9708;53.114;9.388;2023-05-28T03:51:25;9.40;99.90
19152;DHT22;9708;53.114;9.388;2023-05-28T03:53:52;9.40;99.90
19152;DHT22;9708;53.114;9.388;2023-05-28T03:56:19;9.40;99.90
19152;DHT22;9708;53.114;9.388;2023-05-28T03:58:47;9.50;99.90
19152;DHT22;9708;53.114;9.388;2023-05-28T04:01:14;9.60;99.90
19152;DHT22;9708;53.114;9.388;2023-05-28T04:03:40;9.60;99.90
19152;DHT22;9708;53.114;9.388;2023-05-28T04:06:07;9.60;99.90
19152;DHT22;9708;53.114;9.388;2023-05-28T04:08:34;9.70;99.90
19152;DHT22;9708;53.114;9.388;2023-05-28T04:11:01;9.80;99.90
19152;DHT22;9708;53.114;9.388;2023-05-28T04:13:27;9.80;99.90
19152;DHT22;9708;53.114;9.388;2023-05-28T04:15:55;9.90;99.90
19152;DHT22;9708;53.114;9.388;2023-05-28T04:18:22;9.90;99.90
19152;DHT22;9708;53.114;9.388;2023-05-28T04:20:50;10.00;99.90
19152;DHT22;9708;53.114;9.388;2023-05-28T04:23:17;10.00;99.90
19152;DHT22;9708;53.114;9.388;2023-05-28T04:25:43;10.10;99.90
19152;DHT22;9708;53.114;9.388;2023-05-28T04:28:10;10.20;99.90
19152;DHT22;9708;53.114;9.388;2023-05-28T04:30:37;10.40;99.90
19152;DHT22;9708;53.114;9.388;2023-05-28T04:33:05;10.50;99.90
19152;DHT22;9708;53.114;9.388;2023-05-28T04:35:34;10.60;99.90
19152;DHT22;9708;53.114;9.388;2023-05-28T04:38:00;10.70;99.90
19152;DHT22;9708;53.114;9.388;2023-05-28T04:40:27;10.80;99.90
19152;DHT22;9708;53.114;9.388;2023-05-28T04:42:54;10.90;99.90
19152;DHT22;9708;53.114;9.388;2023-05-28T04:45:21;11.10;99.90
19152;DHT22;9708;53.114;9.388;2023-05-28T04:47:48;11.20;99.90
19152;DHT22;9708;53.114;9.388;2023-05-28T04:50:16;11.40;99.90
19152;DHT22;9708;53.114;9.388;2023-05-28T04:52:43;11.70;99.90
19152;DHT22;9708;53.114;9.388;2023-05-28T04:55:09;12.70;99.90
19152;DHT22;9708;53.114;9.388;2023-05-28T04:57:37;13.80;99.90
19152;DHT22;9708;53.114;9.388;2023-05-28T05:00:05;14.90;99.90
19152;DHT22;9708;53.114;9.388;2023-05-28T05:02:37;16.00;99.90
19152;DHT22;9708;53.114;9.388;2023-05-28T05:05:05;16.40;99.90
19152;DHT22;9708;53.114;9.388;2023-05-28T05:07:34;17.10;99.90
19152;DHT22;9708;53.114;9.388;2023-05-28T05:10:01;17.80;99.90
19152;DHT22;9708;53.114;9.388;2023-05-28T05:12:28;18.00;99.90
19152;DHT22;9708;53.114;9.388;2023-05-28T05:14:54;18.30;99.90
19152;DHT22;9708;53.114;9.388;2023-05-28T05:17:21;18.90;99.90
19152;DHT22;9708;53.114;9.388;2023-05-28T05:19:48;19.60;99.90
19152;DHT22;9708;53.114;9.388;2023-05-28T05:22:15;19.70;99.90
19152;DHT22;9708;53.114;9.388;2023-05-28T05:24:45;20.00;99.90
19152;DHT22;9708;53.114;9.388;2023-05-28T05:27:12;20.70;99.90
19152;DHT22;9708;53.114;9.388;2023-05-28T05:29:39;21.20;99.90
19152;DHT22;9708;53.114;9.388;2023-05-28T05:32:06;21.30;99.90
19152;DHT22;9708;53.114;9.388;2023-05-28T05:34:33;21.60;99.90
19152;DHT22;9708;53.114;9.388;2023-05-28T05:37:00;21.60;99.90
19152;DHT22;9708;53.114;9.388;2023-05-28T05:39:27;22.20;99.90
19152;DHT22;9708;53.114;9.388;2023-05-28T05:41:55;21.90;99.90
19152;DHT22;9708;53.114;9.388;2023-05-28T05:44:22;22.20;99.90
19152;DHT22;9708;53.114;9.388;2023-05-28T05:46:49;22.40;99.90
19152;DHT22;9708;53.114;9.388;2023-05-28T05:49:16;22.50;99.90
19152;DHT22;9708;53.114;9.388;2023-05-28T05:51:42;23.00;99.90
19152;DHT22;9708;53.114;9.388;2023-05-28T05:54:10;23.60;99.90
19152;DHT22;9708;53.114;9.388;2023-05-28T05:56:36;23.50;99.90
19152;DHT22;9708;53.114;9.388;2023-05-28T05:59:05;22.90;99.90
19152;DHT22;9708;53.114;9.388;2023-05-28T06:01:32;22.00;99.90
19152;DHT22;9708;53.114;9.388;2023-05-28T06:03:59;21.70;99.90
19152;DHT22;9708;53.114;9.388;2023-05-28T06:06:25;22.00;99.90
19152;DHT22;9708;53.114;9.388;2023-05-28T06:08:52;20.90;99.90
19152;DHT22;9708;53.114;9.388;2023-05-28T06:11:20;20.10;99.90
19152;DHT22;9708;53.114;9.388;2023-05-28T06:13:47;19.40;99.90
19152;DHT22;9708;53.114;9.388;2023-05-28T06:16:15;19.20;99.90
19152;DHT22;9708;53.114;9.388;2023-05-28T06:18:43;18.70;99.90
19152;DHT22;9708;53.114;9.388;2023-05-28T06:21:10;18.80;99.90
19152;DHT22;9708;53.114;9.388;2023-05-28T06:23:36;19.00;99.90
19152;DHT22;9708;53.114;9.388;2023-05-28T06:26:04;19.30;99.90
19152;DHT22;9708;53.114;9.388;2023-05-28T06:28:30;19.40;99.90
19152;DHT22;9708;53.114;9.388;2023-05-28T06:30:57;19.50;99.90
19152;DHT22;9708;53.114;9.388;2023-05-28T06:33:26;19.90;99.90
19152;DHT22;9708;53.114;9.388;2023-05-28T06:35:53;19.60;99.90
19152;DHT22;9708;53.114;9.388;2023-05-28T06:38:20;19.90;99.90
19152;DHT22;9708;53.114;9.388;2023-05-28T06:40:46;19.80;99.90
19152;DHT22;9708;53.114;9.388;2023-05-28T06:43:13;20.70;99.90
19152;DHT22;9708;53.114;9.388;2023-05-28T06:45:40;21.70;99.90
19152;DHT22;9708;53.114;9.388;2023-05-28T06:48:07;22.80;99.90
19152;DHT22;9708;53.114;9.388;2023-05-28T06:50:35;22.90;99.90
19152;DHT22;9708;53.114;9.388;2023-05-28T06:53:02;22.20;99.90
19152;DHT22;9708;53.114;9.388;2023-05-28T06:55:28;21.80;99.90
19152;DHT22;9708;53.114;9.388;2023-05-28T06:57:55;22.40;99.90
19152;DHT22;9708;53.114;9.388;2023-05-28T07:00:22;23.20;99.90
19152;DHT22;9708;53.114;9.388;2023-05-28T07:02:49;23.00;99.90
19152;DHT22;9708;53.114;9.388;2023-05-28T07:05:16;23.10;99.90
19152;DHT22;9708;53.114;9.388;2023-05-28T07:07:44;23.30;99.90
19152;DHT22;9708;53.114;9.388;2023-05-28T07:10:11;23.20;99.90
19152;DHT22;9708;53.114;9.388;2023-05-28T07:12:37;22.70;99.90
19152;DHT22;9708;53.114;9.388;2023-05-28T07:15:05;22.50;99.90
19152;DHT22;9708;53.114;9.388;2023-05-28T07:17:32;22.20;99.90
19152;DHT22;9708;53.114;9.388;2023-05-28T07:19:59;21.80;99.90
19152;DHT22;9708;53.114;9.388;2023-05-28T07:22:25;21.60;99.90
19152;DHT22;9708;53.114;9.388;2023-05-28T07:24:54;22.10;99.90
19152;DHT22;9708;53.114;9.388;2023-05-28T07:27:20;22.60;99.90
19152;DHT22;9708;53.114;9.388;2023-05-28T07:29:47;23.00;99.90
19152;DHT22;9708;53.114;9.388;2023-05-28T07:32:14;22.50;99.90
19152;DHT22;9708;53.114;9.388;2023-05-28T07:34:41;22.20;99.90
19152;DHT22;9708;53.114;9.388;2023-05-28T07:37:07;22.20;99.90
19152;DHT22;9708;53.114;9.388;2023-05-28T07:39:34;22.30;99.90
19152;DHT22;9708;53.114;9.388;2023-05-28T07:42:03;22.50;99.90
19152;DHT22;9708;53.114;9.388;2023-05-28T07:44:29;22.70;99.90
19152;DHT22;9708;53.114;9.388;2023-05-28T07:46:56;22.90;99.90
19152;DHT22;9708;53.114;9.388;2023-05-28T07:49:23;22.80;99.90
19152;DHT22;9708;53.114;9.388;2023-05-28T07:51:50;22.60;99.90
19152;DHT22;9708;53.114;9.388;2023-05-28T07:54:17;22.10;99.90
19152;DHT22;9708;53.114;9.388;2023-05-28T07:56:43;22.00;99.90
19152;DHT22;9708;53.114;9.388;2023-05-28T07:59:12;21.50;99.90
19152;DHT22;9708;53.114;9.388;2023-05-28T08:01:38;21.30;99.90
19152;DHT22;9708;53.114;9.388;2023-05-28T08:04:05;21.10;99.90
19152;DHT22;9708;53.114;9.388;2023-05-28T08:06:32;20.80;99.90
19152;DHT22;9708;53.114;9.388;2023-05-28T08:08:59;20.90;99.90
19152;DHT22;9708;53.114;9.388;2023-05-28T08:11:26;21.00;99.90
19152;DHT22;9708;53.114;9.388;2023-05-28T08:13:52;20.90;99.90
19152;DHT22;9708;53.114;9.388;2023-05-28T08:16:21;21.00;99.90
19152;DHT22;9708;53.114;9.388;2023-05-28T08:18:47;21.10;99.90
19152;DHT22;9708;53.114;9.388;2023-05-28T08:21:14;21.40;99.90
19152;DHT22;9708;53.114;9.388;2023-05-28T08:23:41;21.40;99.90
19152;DHT22;9708;53.114;9.388;2023-05-28T08:26:08;21.80;99.90
19152;DHT22;9708;53.114;9.388;2023-05-28T08:28:35;22.00;99.90
19152;DHT22;9708;53.114;9.388;2023-05-28T08:31:02;22.60;99.90
19152;DHT22;9708;53.114;9.388;2023-05-28T08:33:30;23.00;99.90
19152;DHT22;9708;53.114;9.388;2023-05-28T08:35:57;23.60;99.90
19152;DHT22;9708;53.114;9.388;2023-05-28T08:38:24;23.70;99.90
19152;DHT22;9708;53.114;9.388;2023-05-28T08:40:54;23.70;99.90
19152;DHT22;9708;53.114;9.388;2023-05-28T08:43:21;23.80;99.90
19152;DHT22;9708;53.114;9.388;2023-05-28T08:45:50;23.70;99.90
19152;DHT22;9708;53.114;9.388;2023-05-28T08:48:17;23.80;99.90
19152;DHT22;9708;53.114;9.388;2023-05-28T08:50:47;24.00;99.90
19152;DHT22;9708;53.114;9.388;2023-05-28T08:53:16;23.90;99.90
19152;DHT22;9708;53.114;9.388;2023-05-28T08:55:44;24.00;99.90
19152;DHT22;9708;53.114;9.388;2023-05-28T08:58:11;24.40;99.90
19152;DHT22;9708;53.114;9.388;2023-05-28T09:00:38;24.60;99.90
19152;DHT22;9708;53.114;9.388;2023-05-28T09:03:05;24.70;99.90
19152;DHT22;9708;53.114;9.388;2023-05-28T09:05:34;24.60;99.90
19152;DHT22;9708;53.114;9.388;2023-05-28T09:08:05;24.90;99.90
19152;DHT22;9708;53.114;9.388;2023-05-28T09:10:32;25.10;99.90
19152;DHT22;9708;53.114;9.388;2023-05-28T09:12:59;25.40;99.90
19152;DHT22;9708;53.114;9.388;2023-05-28T09:15:28;25.50;99.90
19152;DHT22;9708;53.114;9.388;2023-05-28T09:17:55;25.60;99.90
19152;DHT22;9708;53.114;9.388;2023-05-28T09:20:23;25.30;99.90
19152;DHT22;9708;53.114;9.388;2023-05-28T09:22:58;25.50;99.90
19152;DHT22;9708;53.114;9.388;2023-05-28T09:25:27;25.10;99.90
19152;DHT22;9708;53.114;9.388;2023-05-28T09:27:56;25.40;99.90
19152;DHT22;9708;53.114;9.388;2023-05-28T09:30:25;25.80;99.90
19152;DHT22;9708;53.114;9.388;2023-05-28T09:33:01;26.30;99.90
19152;DHT22;9708;53.114;9.388;2023-05-28T09:35:29;26.30;99.90
19152;DHT22;9708;53.114;9.388;2023-05-28T09:38:00;26.00;99.90
19152;DHT22;9708;53.114;9.388;2023-05-28T09:40:28;26.10;99.90
19152;DHT22;9708;53.114;9.388;2023-05-28T09:42:55;26.20;99.90
19152;DHT22;9708;53.114;9.388;2023-05-28T09:45:23;26.30;99.90
19152;DHT22;9708;53.114;9.388;2023-05-28T09:47:50;26.30;99.90
19152;DHT22;9708;53.114;9.388;2023-05-28T09:50:17;26.40;99.90
19152;DHT22;9708;53.114;9.388;2023-05-28T09:52:45;26.20;99.90
19152;DHT22;9708;53.114;9.388;2023-05-28T09:55:15;26.10;99.90
19152;DHT22;9708;53.114;9.388;2023-05-28T09:57:48;26.20;99.90
19152;DHT22;9708;53.114;9.388;2023-05-28T10:00:22;26.50;99.90
19152;DHT22;9708;53.114;9.388;2023-05-28T10:02:55;26.90;99.90
19152;DHT22;9708;53.114;9.388;2023-05-28T10:05:23;27.20;99.90
19152;DHT22;9708;53.114;9.388;2023-05-28T10:07:53;27.20;99.90
19152;DHT22;9708;53.114;9.388;2023-05-28T10:10:22;27.10;99.90
19152;DHT22;9708;53.114;9.388;2023-05-28T10:12:51;27.00;99.90
19152;DHT22;9708;53.114;9.388;2023-05-28T10:15:19;27.00;99.90
19152;DHT22;9708;53.114;9.388;2023-05-28T10:20:14;25.60;99.90
19152;DHT22;9708;53.114;9.388;2023-05-28T10:22:41;24.60;99.90
19152;DHT22;9708;53.114;9.388;2023-05-28T10:25:08;24.20;99.90
19152;DHT22;9708;53.114;9.388;2023-05-28T10:27:37;24.60;99.90
19152;DHT22;9708;53.114;9.388;2023-05-28T10:30:06;25.20;99.90
19152;DHT22;9708;53.114;9.388;2023-05-28T10:32:38;24.90;99.90
19152;DHT22;9708;53.114;9.388;2023-05-28T10:35:08;25.50;99.90
19152;DHT22;9708;53.114;9.388;2023-05-28T10:37:36;26.00;99.90
19152;DHT22;9708;53.114;9.388;2023-05-28T10:40:05;26.40;99.90
19152;DHT22;9708;53.114;9.388;2023-05-28T10:42:39;26.90;99.90
19152;DHT22;9708;53.114;9.388;2023-05-28T10:45:09;27.10;99.90
19152;DHT22;9708;53.114;9.388;2023-05-28T10:47:37;26.10;99.90
19152;DHT22;9708;53.114;9.388;2023-05-28T10:50:12;25.10;99.90
19152;DHT22;9708;53.114;9.388;2023-05-28T10:52:39;25.40;99.90
19152;DHT22;9708;53.114;9.388;2023-05-28T10:55:07;26.10;99.90
19152;DHT22;9708;53.114;9.388;2023-05-28T10:57:43;26.50;99.90
19152;DHT22;9708;53.114;9.388;2023-05-28T11:00:12;27.00;99.90
19152;DHT22;9708;53.114;9.388;2023-05-28T11:02:41;27.20;99.90
19152;DHT22;9708;53.114;9.388;2023-05-28T11:05:09;27.70;99.90
19152;DHT22;9708;53.114;9.388;2023-05-28T11:07:37;26.70;99.90
19152;DHT22;9708;53.114;9.388;2023-05-28T11:10:05;26.30;99.90
19152;DHT22;9708;53.114;9.388;2023-05-28T11:12:35;25.80;99.90
19152;DHT22;9708;53.114;9.388;2023-05-28T11:15:05;25.30;99.90
19152;DHT22;9708;53.114;9.388;2023-05-28T11:17:37;25.50;99.90
19152;DHT22;9708;53.114;9.388;2023-05-28T11:20:13;25.30;99.90
19152;DHT22;9708;53.114;9.388;2023-05-28T11:22:40;25.10;99.90
19152;DHT22;9708;53.114;9.388;2023-05-28T11:25:08;25.50;99.90
19152;DHT22;9708;53.114;9.388;2023-05-28T11:27:36;26.00;99.90
19152;DHT22;9708;53.114;9.388;2023-05-28T11:30:08;26.60;99.90
19152;DHT22;9708;53.114;9.388;2023-05-28T11:32:36;26.20;99.90
19152;DHT22;9708;53.114;9.388;2023-05-28T11:35:04;25.90;99.90
19152;DHT22;9708;53.114;9.388;2023-05-28T11:37:32;26.50;99.90
19152;DHT22;9708;53.114;9.388;2023-05-28T11:40:00;26.50;99.90
19152;DHT22;9708;53.114;9.388;2023-05-28T11:42:30;26.80;99.90
19152;DHT22;9708;53.114;9.388;2023-05-28T11:44:57;27.20;99.90
19152;DHT22;9708;53.114;9.388;2023-05-28T11:47:24;26.40;99.90
19152;DHT22;9708;53.114;9.388;2023-05-28T11:49:53;26.50;99.90
19152;DHT22;9708;53.114;9.388;2023-05-28T11:52:21;26.90;99.90
19152;DHT22;9708;53.114;9.388;2023-05-28T11:54:53;27.10;99.90
19152;DHT22;9708;53.114;9.388;2023-05-28T11:57:21;27.50;99.90
19152;DHT22;9708;53.114;9.388;2023-05-28T11:59:55;27.80;99.90
19152;DHT22;9708;53.114;9.388;2023-05-28T12:02:22;27.60;99.90
19152;DHT22;9708;53.114;9.388;2023-05-28T12:04:58;27.00;99.90
19152;DHT22;9708;53.114;9.388;2023-05-28T12:07:29;27.00;99.90
19152;DHT22;9708;53.114;9.388;2023-05-28T12:10:03;26.30;99.90
19152;DHT22;9708;53.114;9.388;2023-05-28T12:12:31;26.40;99.90
19152;DHT22;9708;53.114;9.388;2023-05-28T12:15:00;27.00;99.90
19152;DHT22;9708;53.114;9.388;2023-05-28T12:17:27;27.00;99.90
19152;DHT22;9708;53.114;9.388;2023-05-28T12:20:04;26.30;99.90
19152;DHT22;9708;53.114;9.388;2023-05-28T12:22:32;25.70;99.90
19152;DHT22;9708;53.114;9.388;2023-05-28T12:24:59;26.20;99.90
19152;DHT22;9708;53.114;9.388;2023-05-28T12:27:25;26.80;99.90
19152;DHT22;9708;53.114;9.388;2023-05-28T12:29:52;26.90;99.90
19152;DHT22;9708;53.114;9.388;2023-05-28T12:32:19;27.30;99.90
19152;DHT22;9708;53.114;9.388;2023-05-28T12:34:45;27.50;99.90
19152;DHT22;9708;53.114;9.388;2023-05-28T12:37:14;27.60;99.90
19152;DHT22;9708;53.114;9.388;2023-05-28T12:39:41;26.70;99.90
19152;DHT22;9708;53.114;9.388;2023-05-28T12:42:07;25.80;99.90
19152;DHT22;9708;53.114;9.388;2023-05-28T12:44:34;25.70;99.90
19152;DHT22;9708;53.114;9.388;2023-05-28T12:47:01;25.30;99.90
19152;DHT22;9708;53.114;9.388;2023-05-28T12:49:28;25.20;99.90
19152;DHT22;9708;53.114;9.388;2023-05-28T12:51:55;25.00;99.90
19152;DHT22;9708;53.114;9.388;2023-05-28T12:54:23;24.60;99.90
19152;DHT22;9708;53.114;9.388;2023-05-28T12:56:50;24.50;99.90
19152;DHT22;9708;53.114;9.388;2023-05-28T12:59:23;24.40;99.90
19152;DHT22;9708;53.114;9.388;2023-05-28T13:01:50;25.00;99.90
19152;DHT22;9708;53.114;9.388;2023-05-28T13:04:18;25.70;99.90
19152;DHT22;9708;53.114;9.388;2023-05-28T13:06:45;26.20;99.90
19152;DHT22;9708;53.114;9.388;2023-05-28T13:09:12;26.60;99.90
19152;DHT22;9708;53.114;9.388;2023-05-28T13:11:41;27.00;99.90
19152;DHT22;9708;53.114;9.388;2023-05-28T13:14:08;26.70;99.90
19152;DHT22;9708;53.114;9.388;2023-05-28T13:16:35;25.30;99.90
19152;DHT22;9708;53.114;9.388;2023-05-28T13:19:03;24.80;99.90
19152;DHT22;9708;53.114;9.388;2023-05-28T13:21:30;23.90;99.90
19152;DHT22;9708;53.114;9.388;2023-05-28T13:23:58;23.50;99.90
19152;DHT22;9708;53.114;9.388;2023-05-28T13:26:25;23.20;99.90
19152;DHT22;9708;53.114;9.388;2023-05-28T13:28:54;23.10;99.90
19152;DHT22;9708;53.114;9.388;2023-05-28T13:31:20;24.00;99.90
19152;DHT22;9708;53.114;9.388;2023-05-28T13:33:47;24.80;99.90
19152;DHT22;9708;53.114;9.388;2023-05-28T13:36:14;25.30;99.90
19152;DHT22;9708;53.114;9.388;2023-05-28T13:38:41;25.70;99.90
19152;DHT22;9708;53.114;9.388;2023-05-28T13:41:08;25.30;99.90
19152;DHT22;9708;53.114;9.388;2023-05-28T13:43:35;24.50;99.90
19152;DHT22;9708;53.114;9.388;2023-05-28T13:46:04;23.90;99.90
19152;DHT22;9708;53.114;9.388;2023-05-28T13:48:31;23.50;99.90
19152;DHT22;9708;53.114;9.388;2023-05-28T13:50:59;23.90;99.90
19152;DHT22;9708;53.114;9.388;2023-05-28T13:53:26;24.30;99.90
19152;DHT22;9708;53.114;9.388;2023-05-28T13:55:53;24.50;99.90
19152;DHT22;9708;53.114;9.388;2023-05-28T13:58:20;24.70;99.90
19152;DHT22;9708;53.114;9.388;2023-05-28T14:00:47;24.60;99.90
19152;DHT22;9708;53.114;9.388;2023-05-28T14:03:15;24.70;99.90
19152;DHT22;9708;53.114;9.388;2023-05-28T14:05:43;24.50;99.90
19152;DHT22;9708;53.114;9.388;2023-05-28T14:08:11;24.70;99.90
19152;DHT22;9708;53.114;9.388;2023-05-28T14:10:38;24.70;99.90
19152;DHT22;9708;53.114;9.388;2023-05-28T14:13:05;24.40;99.90
19152;DHT22;9708;53.114;9.388;2023-05-28T14:15:32;24.20;99.90
19152;DHT22;9708;53.114;9.388;2023-05-28T14:17:58;24.30;99.90
19152;DHT22;9708;53.114;9.388;2023-05-28T14:20:27;24.40;99.90
19152;DHT22;9708;53.114;9.388;2023-05-28T14:22:54;24.20;99.90
19152;DHT22;9708;53.114;9.388;2023-05-28T14:25:21;23.80;99.90
19152;DHT22;9708;53.114;9.388;2023-05-28T14:27:48;23.70;99.90
19152;DHT22;9708;53.114;9.388;2023-05-28T14:30:15;23.70;99.90
19152;DHT22;9708;53.114;9.388;2023-05-28T14:32:41;23.60;99.90
19152;DHT22;9708;53.114;9.388;2023-05-28T14:35:09;23.40;99.90
19152;DHT22;9708;53.114;9.388;2023-05-28T14:37:37;23.60;99.90
19152;DHT22;9708;53.114;9.388;2023-05-28T14:40:05;23.60;99.90
19152;DHT22;9708;53.114;9.388;2023-05-28T14:42:32;23.50;99.90
19152;DHT22;9708;53.114;9.388;2023-05-28T14:44:58;23.50;99.90
19152;DHT22;9708;53.114;9.388;2023-05-28T14:47:25;23.20;99.90
19152;DHT22;9708;53.114;9.388;2023-05-28T14:49:52;23.20;99.90
19152;DHT22;9708;53.114;9.388;2023-05-28T14:52:23;23.10;99.90
19152;DHT22;9708;53.114;9.388;2023-05-28T14:54:52;23.20;99.90
19152;DHT22;9708;53.114;9.388;2023-05-28T14:57:19;23.40;99.90
19152;DHT22;9708;53.114;9.388;2023-05-28T14:59:46;23.00;99.90
19152;DHT22;9708;53.114;9.388;2023-05-28T15:02:13;23.00;99.90
19152;DHT22;9708;53.114;9.388;2023-05-28T15:04:41;23.00;99.90
19152;DHT22;9708;53.114;9.388;2023-05-28T15:07:08;23.00;99.90
19152;DHT22;9708;53.114;9.388;2023-05-28T15:09:35;22.80;99.90
19152;DHT22;9708;53.114;9.388;2023-05-28T15:12:05;22.80;99.90
19152;DHT22;9708;53.114;9.388;2023-05-28T15:14:32;22.70;99.90
19152;DHT22;9708;53.114;9.388;2023-05-28T15:16:59;22.70;99.90
19152;DHT22;9708;53.114;9.388;2023-05-28T15:19:26;22.70;99.90
19152;DHT22;9708;53.114;9.388;2023-05-28T15:21:53;22.50;99.90
19152;DHT22;9708;53.114;9.388;2023-05-28T15:24:20;22.60;99.90
19152;DHT22;9708;53.114;9.388;2023-05-28T15:26:47;22.40;99.90
19152;DHT22;9708;53.114;9.388;2023-05-28T15:29:16;22.40;99.90
19152;DHT22;9708;53.114;9.388;2023-05-28T15:31:46;22.40;99.90
19152;DHT22;9708;53.114;9.388;2023-05-28T15:34:13;22.20;99.90
19152;DHT22;9708;53.114;9.388;2023-05-28T15:36:41;22.00;99.90
19152;DHT22;9708;53.114;9.388;2023-05-28T15:39:08;22.00;99.90
19152;DHT22;9708;53.114;9.388;2023-05-28T15:41:36;22.00;99.90
19152;DHT22;9708;53.114;9.388;2023-05-28T15:44:03;22.10;99.90
19152;DHT22;9708;53.114;9.388;2023-05-28T15:46:32;22.00;99.90
19152;DHT22;9708;53.114;9.388;2023-05-28T15:48:59;22.00;99.90
19152;DHT22;9708;53.114;9.388;2023-05-28T15:51:26;22.10;99.90
19152;DHT22;9708;53.114;9.388;2023-05-28T15:53:54;22.00;99.90